Česky Dansk Deutsch English Español Suomi Français Magyar Italiano Nederlands norsk Polski Português svenska Türkçe

 

Het Weer

Lyon / Bron (Frankrijk)

03:30, 16 augustus 2016 (GMT)

NWNNE
WE
SWSSE
Home            
Lyon / Bron Lyon / Satolas Amberieu Grenoble / St. Geoirs St-Etienne Boutheon Macon Chambery / Aix-Les-Bains Saint-Yan Geneve-Cointrin Le Puy Montelimar Vichy Clermont-Ferrand Dole Tavaux Lausanne Dijon Mende / Brenoux Orange Besancon Sion Payerne St-Auban-Sur-Durance Nevers

Om een weerknop op uw website of weblog te plaatsen, copieer onderstaande code en plak die in uw pagina. In het eerste vakje staat HTML-code, in het tweede vakje UBB-code.


Add to Google

Details

Wind speed:2 bf, 6 kn, 3.1 m/s, 6.9 miles/h, 11.1 km/h
Wind direction:SE, 130°
Visibility:Greater than 10000 m, 10 km, 32800 ft, 6.2 miles
Clouds:CAVOC
Temperature:19°C, 66°F
Dew-point:11°C, 52°F
Atmospheric pressure:1016 hPa, 762.1 mmHg, 30.00 inHg, 1.003 atm
Relative humidity:59.7 %
METAR:LFLY 160330Z AUTO 13006KT CAVOK 19/11 Q1016 NOSIG

Snelkoppelingen

Actuele weersinformatie van de hele wereld. Voeg locaties toe met het plus (+) symbool. Deze snelkoppelingen kunnen worden toegevoegd aan Google.

Lid van de Technetium groep

website free tracking
StatCounter NetStat W3C Validator

27-01-2022 06:03:15
astro.technetium.be money.technetium.be phote.technetium.be tafeltennistafel.technetium.be www.ligfiets.net